Time;durP1;ratioP1;P1;durP2;ratioP2;P2;SDS_P1;SDS_P2;PMS_P1;PMS_P2;Temp;Humidity;BMP_temperature;BMP_pressure;BME280_temperature;BME280_humidity;BME280_pressure;Samples;Min_cycle;Max_cycle;Signal;HPM_P1;HPM_P2
2022/10/21 05:17:20;;;;;;;20.13;8.50;;;;;;;12.41;100.00;98522.72;5135820;27;20547;-76
2022/10/21 05:19:46;;;;;;;20.73;9.67;;;;;;;12.46;100.00;98505.75;5115029;27;20500;-76
2022/10/21 05:22:13;;;;;;;14.68;8.90;;;;;;;12.42;100.00;98493.56;5107479;28;20075;-76
2022/10/21 05:24:40;;;;;;;15.07;8.65;;;;;;;12.48;100.00;98493.56;5108021;28;20113;-76
2022/10/21 05:27:07;;;;;;;18.75;8.60;;;;;;;12.67;100.00;98516.38;5108359;28;20047;-76
2022/10/21 05:29:33;;;;;;;25.13;8.50;;;;;;;12.63;100.00;98503.38;5111954;27;20491;-77
2022/10/21 05:32:00;;;;;;;21.17;8.13;;;;;;;12.87;100.00;98515.47;5104318;28;20056;-77
2022/10/21 05:34:28;;;;;;;15.13;7.18;;;;;;;12.93;100.00;98525.50;5107787;28;20056;-78
2022/10/21 05:36:54;;;;;;;19.60;8.05;;;;;;;12.87;100.00;98504.56;5107910;28;20475;-78
2022/10/21 05:39:21;;;;;;;22.67;7.72;;;;;;;13.04;100.00;98529.47;5108225;28;20135;-78
2022/10/21 05:41:47;;;;;;;20.98;7.50;;;;;;;13.07;100.00;98527.13;5113984;28;20052;-77
2022/10/21 05:44:14;;;;;;;20.67;7.57;;;;;;;13.01;100.00;98508.09;5119087;27;20051;-77
2022/10/21 05:46:41;;;;;;;15.30;7.15;;;;;;;13.19;100.00;98538.22;5113918;27;20502;-78
2022/10/21 05:49:07;;;;;;;17.52;6.88;;;;;;;13.19;100.00;98527.31;5107367;28;20463;-78
2022/10/21 05:51:35;;;;;;;14.63;7.25;;;;;;;13.10;100.00;98501.31;5107771;28;20055;-78
2022/10/21 05:54:02;;;;;;;14.90;7.25;;;;;;;13.13;100.00;98516.41;5101899;28;20047;-78
2022/10/21 05:56:29;;;;;;;15.00;6.13;;;;;;;13.11;100.00;98516.63;5111075;27;20055;-78
2022/10/21 05:58:56;;;;;;;15.98;6.70;;;;;;;13.16;100.00;98510.50;5110647;27;20343;-78
2022/10/21 06:01:22;;;;;;;17.38;7.00;;;;;;;13.28;100.00;98519.72;5100932;28;20499;-78
2022/10/21 06:03:49;;;;;;;14.00;6.15;;;;;;;13.30;100.00;98508.56;5086300;28;20052;-78
2022/10/21 06:06:15;;;;;;;22.42;7.25;;;;;;;13.38;100.00;98532.91;5086826;28;20044;-78
2022/10/21 06:08:43;;;;;;;15.82;7.03;;;;;;;13.38;100.00;98535.63;5111150;27;20046;-78
2022/10/21 06:11:11;;;;;;;17.83;6.90;;;;;;;13.41;100.00;98529.72;5097512;28;20502;-78
2022/10/21 06:13:39;;;;;;;18.50;8.35;;;;;;;13.44;100.00;98532.03;5111533;28;20074;-78
2022/10/21 06:16:07;;;;;;;13.10;6.97;;;;;;;13.32;100.00;98504.53;5108886;27;20067;-78
2022/10/21 06:18:34;;;;;;;16.95;7.20;;;;;;;13.45;100.00;98514.59;5087067;28;20083;-78
2022/10/21 06:21:00;;;;;;;14.48;6.28;;;;;;;13.55;100.00;98514.09;5105981;28;20055;-78
2022/10/21 06:23:27;;;;;;;17.70;6.82;;;;;;;13.47;100.00;98503.44;5118309;27;20039;-78
2022/10/21 06:25:57;;;;;;;13.10;6.90;;;;;;;13.57;100.00;98506.53;5127342;27;20130;-78
2022/10/21 06:28:24;;;;;;;17.52;6.38;;;;;;;13.52;100.00;98493.53;5100819;27;20052;-78
2022/10/21 06:30:50;;;;;;;22.05;6.80;;;;;;;13.59;100.00;98504.41;5090376;28;20056;-78
2022/10/21 06:33:17;;;;;;;15.05;6.05;;;;;;;13.55;100.00;98505.91;5093646;28;20056;-78
2022/10/21 06:35:44;;;;;;;19.00;6.18;;;;;;;13.49;100.00;98504.91;5105199;28;20044;-78
2022/10/21 06:38:10;;;;;;;13.77;6.40;;;;;;;13.65;100.00;98530.00;5113261;28;20058;-78
2022/10/21 06:40:37;;;;;;;19.50;6.05;;;;;;;13.56;100.00;98537.63;5113706;28;20131;-78
2022/10/21 06:43:05;;;;;;;12.93;5.97;;;;;;;13.40;100.00;98530.81;5112654;28;20074;-78
2022/10/21 06:45:32;;;;;;;17.00;6.30;;;;;;;13.55;100.00;98531.34;5081954;28;20075;-78
2022/10/21 06:47:58;;;;;;;18.95;6.30;;;;;;;13.68;100.00;98554.16;5100088;28;20070;-78
2022/10/21 06:50:26;;;;;;;21.27;6.53;;;;;;;13.49;100.00;98523.16;5105625;28;20638;-78
2022/10/21 06:52:53;;;;;;;18.85;5.93;;;;;;;13.59;100.00;98526.25;5112298;28;20504;-78
2022/10/21 06:55:20;;;;;;;16.33;6.53;;;;;;;13.62;100.00;98523.94;5096752;28;20056;-78
2022/10/21 06:57:46;;;;;;;28.17;6.55;;;;;;;13.63;100.00;98547.44;5092580;28;20387;-78
2022/10/21 07:00:15;;;;;;;21.70;7.28;;;;;;;13.64;100.00;98553.75;5090086;28;20154;-78
2022/10/21 07:02:41;;;;;;;22.52;7.07;;;;;;;13.65;100.00;98566.34;5070838;28;20058;-78
2022/10/21 07:05:09;;;;;;;14.05;6.53;;;;;;;13.55;100.00;98539.53;5072758;28;20052;-78
2022/10/21 07:07:35;;;;;;;11.50;5.72;;;;;;;13.60;100.00;98552.53;5072266;28;20049;-78
2022/10/21 07:10:02;;;;;;;20.85;9.50;;;;;;;13.73;100.00;98566.09;5097024;28;20130;-78
2022/10/21 07:12:31;;;;;;;15.95;6.50;;;;;;;13.77;100.00;98589.16;5098666;28;20044;-78
2022/10/21 07:14:57;;;;;;;11.82;6.05;;;;;;;13.77;100.00;98605.56;5090956;28;20048;-77
2022/10/21 07:17:28;;;;;;;25.83;7.13;;;;;;;13.60;100.00;98580.66;5072195;28;20053;-77
2022/10/21 07:19:54;;;;;;;16.65;5.40;;;;;;;13.79;100.00;98591.72;5072029;28;20052;-77
2022/10/21 07:22:21;;;;;;;17.10;5.85;;;;;;;13.86;100.00;98587.00;5078256;28;20036;-77
2022/10/21 07:24:48;;;;;;;19.40;5.70;;;;;;;13.70;100.00;98566.53;5104473;28;20124;-77
2022/10/21 07:27:14;;;;;;;14.57;5.55;;;;;;;13.77;100.00;98564.56;5099914;28;20048;-77
2022/10/21 07:29:41;;;;;;;17.25;6.75;;;;;;;13.73;100.00;98555.16;5091362;28;20483;-77
2022/10/21 07:32:07;;;;;;;13.75;5.55;;;;;;;13.74;100.00;98550.53;5092501;28;20048;-77
2022/10/21 07:34:35;;;;;;;17.58;6.10;;;;;;;13.74;100.00;98534.16;5104400;28;20066;-77
2022/10/21 07:37:02;;;;;;;15.02;6.07;;;;;;;13.83;100.00;98505.50;5112631;28;20048;-77
2022/10/21 07:39:28;;;;;;;15.43;6.32;;;;;;;13.81;100.00;98485.75;5096722;28;20047;-78
2022/10/21 07:41:56;;;;;;;21.88;6.32;;;;;;;13.72;100.00;98496.13;5102327;28;20044;-78
2022/10/21 07:44:25;;;;;;;20.63;5.65;;;;;;;13.97;100.00;98533.53;5090537;28;20040;-78
2022/10/21 07:46:53;;;;;;;19.25;5.82;;;;;;;13.80;100.00;98503.22;5087586;28;20054;-77
2022/10/21 07:49:21;;;;;;;14.65;5.18;;;;;;;13.96;100.00;98540.09;5091885;28;20047;-77
2022/10/21 07:51:49;;;;;;;20.23;6.50;;;;;;;13.91;100.00;98531.69;5090917;28;20052;-77
2022/10/21 07:54:17;;;;;;;13.88;4.95;;;;;;;14.05;100.00;98552.41;5101992;28;20047;-77
2022/10/21 07:56:46;;;;;;;14.80;6.13;;;;;;;13.92;100.00;98545.13;5112307;28;20040;-77
2022/10/21 07:59:14;;;;;;;18.90;5.30;;;;;;;14.02;100.00;98582.09;5092510;28;20491;-77
2022/10/21 08:01:42;;;;;;;16.52;6.22;;;;;;;13.95;100.00;98546.59;5090416;28;20056;-77
2022/10/21 08:04:10;;;;;;;15.48;5.20;;;;;;;14.06;100.00;98562.28;5090549;28;20058;-78
2022/10/21 08:06:37;;;;;;;17.40;5.68;;;;;;;14.15;100.00;98543.69;5095718;28;20505;-77
2022/10/21 08:09:05;;;;;;;13.38;5.38;;;;;;;14.03;100.00;98540.88;5099042;28;20497;-78
2022/10/21 08:11:33;;;;;;;19.13;5.93;;;;;;;14.06;100.00;98521.31;5091452;28;20044;-77
2022/10/21 08:14:00;;;;;;;19.80;5.80;;;;;;;13.97;100.00;98530.81;5089698;28;20067;-77
2022/10/21 08:16:28;;;;;;;17.10;5.55;;;;;;;14.07;100.00;98574.06;5084957;28;20483;-77
2022/10/21 08:18:55;;;;;;;16.27;5.38;;;;;;;14.18;100.00;98556.09;5090655;28;20067;-77
2022/10/21 08:21:22;;;;;;;10.15;4.93;;;;;;;14.28;100.00;98551.78;5091271;28;20058;-77
2022/10/21 08:23:48;;;;;;;14.30;5.03;;;;;;;14.13;100.00;98524.78;5097341;28;20566;-77
2022/10/21 08:26:16;;;;;;;14.20;5.80;;;;;;;14.33;100.00;98551.13;5110634;28;20410;-77
2022/10/21 08:28:44;;;;;;;16.13;5.03;;;;;;;14.38;100.00;98547.69;5110538;28;20050;-77
2022/10/21 08:31:13;;;;;;;17.42;5.93;;;;;;;14.28;100.00;98532.66;5087954;28;20052;-77
2022/10/21 08:33:39;;;;;;;21.77;5.60;;;;;;;14.40;100.00;98557.34;5083371;28;20244;-77
2022/10/21 08:36:07;;;;;;;14.38;5.53;;;;;;;14.29;100.00;98567.13;5086425;28;20106;-76
2022/10/21 08:38:34;;;;;;;13.95;5.65;;;;;;;14.20;100.00;98548.53;5093307;28;20052;-77
2022/10/21 08:41:02;;;;;;;12.52;5.53;;;;;;;14.22;100.00;98541.75;5090596;28;20055;-77
2022/10/21 08:43:33;;;;;;;15.00;5.00;;;;;;;14.24;100.00;98536.06;5088840;28;20528;-77
2022/10/21 08:46:04;;;;;;;14.73;4.80;;;;;;;14.30;100.00;98536.00;5088542;28;20123;-77
2022/10/21 08:48:37;;;;;;;10.05;4.75;;;;;;;14.42;100.00;98548.94;5081457;28;20052;-77
2022/10/21 08:51:06;;;;;;;14.68;5.32;;;;;;;14.36;100.00;98511.56;5088204;28;20398;-77
2022/10/21 08:53:39;;;;;;;18.08;6.47;;;;;;;14.36;100.00;98528.78;5102918;28;20040;-77
2022/10/21 08:56:07;;;;;;;9.13;5.28;;;;;;;14.37;100.00;98521.44;5090160;28;20043;-77
2022/10/21 08:58:35;;;;;;;10.93;4.50;;;;;;;14.38;100.00;98526.69;5088004;28;20048;-77
2022/10/21 09:01:05;;;;;;;11.60;4.75;;;;;;;14.51;100.00;98544.84;5070120;28;20052;-77
2022/10/21 09:03:40;;;;;;;16.50;5.15;;;;;;;14.28;100.00;98529.09;5073398;28;20048;-77
2022/10/21 09:06:17;;;;;;;13.07;4.80;;;;;;;14.29;100.00;98536.25;5083843;28;20056;-77
2022/10/21 09:08:54;;;;;;;12.70;5.32;;;;;;;14.22;100.00;98530.00;5101563;28;20070;-77
2022/10/21 09:11:32;;;;;;;12.23;6.03;;;;;;;14.39;100.00;98563.06;5094133;28;20048;-77
2022/10/21 09:14:35;;;;;;;10.32;5.32;;;;;;;14.40;100.00;98551.06;5101225;28;20036;-77
2022/10/21 09:17:10;;;;;;;15.50;6.00;;;;;;;14.25;100.00;98573.28;5088141;28;20048;-77
2022/10/21 09:19:47;;;;;;;23.20;7.75;;;;;;;14.41;100.00;98588.31;5101481;28;20138;-79
2022/10/21 09:22:34;;;;;;;20.90;8.00;;;;;;;14.41;100.00;98541.81;5095061;28;20052;-78
2022/10/21 09:25:17;;;;;;;13.68;6.25;;;;;;;14.40;100.00;98576.50;5090493;28;20087;-78
2022/10/21 09:27:43;;;;;;;16.50;6.45;;;;;;;14.31;100.00;98622.41;5090544;28;20040;-78
2022/10/21 09:30:16;;;;;;;13.90;6.45;;;;;;;14.38;100.00;98584.09;5070637;28;20052;-78
2022/10/21 09:32:48;;;;;;;16.27;6.10;;;;;;;14.38;100.00;98607.84;5082901;28;20081;-78
2022/10/21 09:35:22;;;;;;;12.48;6.57;;;;;;;14.40;100.00;98633.94;5096627;28;20063;-78
2022/10/21 09:37:53;;;;;;;10.48;5.65;;;;;;;14.29;100.00;98579.97;5088365;28;20099;-78
2022/10/21 09:40:22;;;;;;;17.25;7.53;;;;;;;14.49;100.00;98588.00;5101864;28;20138;-77
2022/10/21 09:42:51;;;;;;;18.80;6.95;;;;;;;14.47;100.00;98603.81;5106786;28;20501;-77
2022/10/21 09:45:26;;;;;;;14.60;6.97;;;;;;;14.45;100.00;98620.44;5089860;28;20052;-78
2022/10/21 09:47:57;;;;;;;16.95;6.43;;;;;;;14.39;100.00;98610.41;5097137;28;20040;-77
2022/10/21 09:50:24;;;;;;;22.88;8.40;;;;;;;14.52;100.00;98628.56;5070224;28;20135;-77
2022/10/21 09:52:58;;;;;;;14.93;6.20;;;;;;;14.38;100.00;98616.06;5080270;28;20044;-77
2022/10/21 09:55:26;;;;;;;16.45;8.52;;;;;;;14.52;100.00;98640.34;5082441;28;20070;-77
2022/10/21 09:57:58;;;;;;;16.30;6.82;;;;;;;14.52;100.00;98636.78;5085738;28;20044;-78
2022/10/21 10:03:35;;;;;;;14.48;6.43;;;;;;;14.54;100.00;98677.59;5103282;27;20258;-78
2022/10/21 10:06:03;;;;;;;19.40;6.70;;;;;;;14.41;100.00;98656.66;5105330;28;20047;-79
2022/10/21 10:08:38;;;;;;;14.75;6.63;;;;;;;14.43;100.00;98644.41;5101806;28;20056;-78
2022/10/21 10:11:13;;;;;;;18.20;7.80;;;;;;;14.56;100.00;98673.56;5105897;28;20058;-79
2022/10/21 10:13:42;;;;;;;17.90;6.30;;;;;;;14.67;100.00;98672.03;5107041;28;20409;-78
2022/10/21 10:16:16;;;;;;;16.38;6.40;;;;;;;14.59;100.00;98639.44;5102111;28;20058;-78
2022/10/21 10:18:44;;;;;;;19.55;6.95;;;;;;;14.71;100.00;98643.19;5102775;28;20394;-77
2022/10/21 10:21:12;;;;;;;13.38;6.40;;;;;;;14.95;100.00;98657.91;5107923;28;20170;-77
2022/10/21 10:23:44;;;;;;;20.00;5.70;;;;;;;14.86;100.00;98643.66;5105361;28;20474;-77
2022/10/21 10:26:16;;;;;;;10.43;5.72;;;;;;;15.06;100.00;98667.25;5096748;28;20399;-77
2022/10/21 10:28:49;;;;;;;14.70;5.38;;;;;;;14.84;100.00;98637.59;5087568;28;20048;-77
2022/10/21 10:31:23;;;;;;;12.52;4.50;;;;;;;14.95;100.00;98670.72;5089729;28;20471;-77
2022/10/21 10:33:57;;;;;;;15.57;5.35;;;;;;;14.84;100.00;98645.78;5090663;28;20530;-77
2022/10/21 10:36:28;;;;;;;14.25;5.15;;;;;;;14.92;100.00;98647.41;5086651;28;20078;-77
2022/10/21 10:38:58;;;;;;;11.38;4.78;;;;;;;15.10;100.00;98649.31;5103109;28;20058;-77
2022/10/21 10:41:32;;;;;;;9.85;4.70;;;;;;;15.18;100.00;98643.53;5103614;28;20044;-76
2022/10/21 10:43:59;;;;;;;8.50;4.70;;;;;;;15.16;100.00;98626.50;5097633;28;20050;-77
2022/10/21 10:46:28;;;;;;;12.85;4.72;;;;;;;15.19;100.00;98628.78;5095065;28;20058;-76
2022/10/21 10:48:57;;;;;;;14.55;4.13;;;;;;;15.37;100.00;98659.97;5085488;28;20048;-76
2022/10/21 10:51:27;;;;;;;9.40;4.40;;;;;;;15.42;100.00;98649.16;5086900;28;20062;-76
2022/10/21 10:54:03;;;;;;;14.52;5.78;;;;;;;15.63;100.00;98664.28;5086335;28;20059;-76
2022/10/21 10:56:33;;;;;;;10.80;4.05;;;;;;;15.55;100.00;98649.00;5091106;28;20521;-76
2022/10/21 10:59:11;;;;;;;;;;;;;;;15.78;100.00;98663.94;5100289;28;20532;-76
2022/10/21 11:01:43;;;;;;;5.97;3.60;;;;;;;15.85;100.00;98661.09;5101018;28;19920;-76
2022/10/21 11:04:17;;;;;;;7.13;3.38;;;;;;;15.97;100.00;98666.63;5106094;28;20055;-76
2022/10/21 11:06:48;;;;;;;8.15;3.47;;;;;;;15.99;100.00;98650.75;5107156;28;20127;-76
2022/10/21 11:09:15;;;;;;;8.60;3.30;;;;;;;16.22;100.00;98650.84;5106906;28;20527;-76
2022/10/21 11:11:46;;;;;;;8.40;3.38;;;;;;;16.18;100.00;98640.59;5103252;28;20048;-77
2022/10/21 11:14:15;;;;;;;9.05;2.80;;;;;;;16.15;100.00;98630.09;5085667;28;20051;-77
2022/10/21 11:16:53;;;;;;;12.43;3.63;;;;;;;16.36;100.00;98637.75;5081284;28;20044;-76
2022/10/21 11:19:27;;;;;;;9.55;3.33;;;;;;;16.42;100.00;98642.34;5072791;28;20056;-76
2022/10/21 11:21:55;;;;;;;9.00;3.10;;;;;;;16.36;100.00;98629.53;5073104;28;20125;-76
2022/10/21 11:24:49;;;;;;;13.00;4.55;;;;;;;16.52;100.00;98655.44;5071963;28;20064;-76
2022/10/21 11:27:27;;;;;;;7.95;3.33;;;;;;;16.55;100.00;98654.16;5072966;28;20106;-76
2022/10/21 11:30:04;;;;;;;13.43;3.75;;;;;;;16.42;100.00;98631.34;5084405;28;20048;-76
2022/10/21 11:32:43;;;;;;;11.10;3.28;;;;;;;16.56;100.00;98636.59;5071711;28;20044;-76
2022/10/21 11:35:29;;;;;;;13.27;4.78;;;;;;;16.70;100.00;98653.69;5072585;28;20056;-76
2022/10/21 11:38:32;;;;;;;10.57;3.60;;;;;;;16.51;100.00;98634.56;5072940;28;20116;-76
2022/10/21 11:41:07;;;;;;;16.48;3.78;;;;;;;16.42;100.00;98639.59;5087271;28;20044;-76
2022/10/21 11:43:42;;;;;;;13.65;3.78;;;;;;;16.51;100.00;98640.06;5075090;28;20044;-76
2022/10/21 11:46:16;;;;;;;8.68;3.03;;;;;;;16.64;100.00;98652.72;5088043;28;20043;-76
2022/10/21 11:49:00;;;;;;;7.25;2.92;;;;;;;16.75;100.00;98645.56;5075952;28;20499;-76
2022/10/21 11:51:38;;;;;;;8.50;2.60;;;;;;;16.80;100.00;98634.69;5072605;28;20056;-76
2022/10/21 11:54:25;;;;;;;16.45;2.72;;;;;;;16.88;100.00;98633.56;5071503;28;20052;-76
2022/10/21 11:57:03;;;;;;;8.93;2.22;;;;;;;16.90;100.00;98632.22;5072209;28;20143;-76
2022/10/21 11:59:40;;;;;;;5.75;2.10;;;;;;;17.12;100.00;98654.44;5077247;28;20048;-76
2022/10/21 12:02:15;;;;;;;10.98;2.35;;;;;;;17.05;100.00;98628.19;5078394;28;20049;-76
2022/10/21 12:04:51;;;;;;;4.63;2.10;;;;;;;17.17;100.00;98649.03;5072419;28;20055;-76
2022/10/21 12:07:38;;;;;;;8.75;1.80;;;;;;;17.07;100.00;98634.25;5072120;28;20048;-76
2022/10/21 12:10:12;;;;;;;6.07;1.55;;;;;;;16.99;100.00;98644.50;5072055;28;20051;-76
2022/10/21 12:12:41;;;;;;;5.28;1.75;;;;;;;17.01;100.00;98635.22;5077260;28;20051;-75
2022/10/21 12:15:14;;;;;;;3.58;1.25;;;;;;;16.84;100.00;98626.84;5081976;28;20044;-76
2022/10/21 12:17:42;;;;;;;3.85;1.90;;;;;;;16.93;100.00;98641.91;5091470;28;20052;-75
2022/10/21 12:20:17;;;;;;;4.20;1.90;;;;;;;16.63;100.00;98620.84;5083067;28;20129;-76
2022/10/21 12:22:46;;;;;;;6.00;1.50;;;;;;;16.46;100.00;98621.56;5091750;28;20054;-75
2022/10/21 12:25:24;;;;;;;4.00;1.80;;;;;;;16.47;100.00;98638.88;5090049;28;20062;-76
2022/10/21 12:27:55;;;;;;;4.57;1.50;;;;;;;16.58;100.00;98618.84;5080119;28;20056;-76
2022/10/21 12:30:29;;;;;;;6.63;1.80;;;;;;;16.71;100.00;98634.25;5071450;28;20056;-75
2022/10/21 12:33:11;;;;;;;2.55;1.50;;;;;;;16.64;100.00;98642.56;5070863;28;20131;-76
2022/10/21 12:35:45;;;;;;;6.30;1.70;;;;;;;16.58;100.00;98624.31;5075608;28;20066;-76
2022/10/21 12:38:44;;;;;;;4.55;1.05;;;;;;;16.71;100.00;98642.47;5071107;28;20458;-76
2022/10/21 12:41:36;;;;;;;2.42;1.17;;;;;;;16.58;100.00;98620.75;5079349;28;20139;-75
2022/10/21 12:44:17;;;;;;;5.10;1.30;;;;;;;16.66;100.00;98647.81;5068173;28;20040;-76
2022/10/21 12:46:45;;;;;;;1.30;1.10;;;;;;;16.55;100.00;98622.06;5072601;28;20056;-76
2022/10/21 12:49:25;;;;;;;6.60;1.45;;;;;;;16.78;100.00;98642.34;5068945;28;20095;-76
2022/10/21 12:51:57;;;;;;;2.05;1.30;;;;;;;16.64;100.00;98628.84;5068835;28;20041;-76
2022/10/21 12:54:29;;;;;;;4.60;1.25;;;;;;;16.86;100.00;98643.91;5077520;28;20408;-75
2022/10/21 12:57:02;;;;;;;2.75;1.42;;;;;;;16.81;100.00;98645.44;5085749;28;20480;-76
2022/10/21 12:59:35;;;;;;;3.17;1.08;;;;;;;16.83;100.00;98637.00;5089112;28;20052;-76
2022/10/21 13:02:21;;;;;;;3.30;1.10;;;;;;;16.93;100.00;98642.72;5087801;28;20048;-75
2022/10/21 13:04:51;;;;;;;3.67;0.88;;;;;;;16.76;100.00;98628.88;5088761;28;20048;-76
2022/10/21 13:07:28;;;;;;;;;;;;;;;16.74;100.00;98641.16;5084485;28;20135;-76
2022/10/21 13:10:35;;;;;;;1.85;1.13;;;;;;;16.77;100.00;98636.03;5075473;28;19920;-76
2022/10/21 13:13:32;;;;;;;5.78;1.33;;;;;;;16.87;100.00;98638.19;5079404;28;20135;-76
2022/10/21 13:16:00;;;;;;;2.08;0.95;;;;;;;16.63;100.00;98623.59;5088240;28;20074;-76
2022/10/21 13:18:52;;;;;;;5.78;1.13;;;;;;;16.77;100.00;98633.28;5087905;28;20147;-76
2022/10/21 13:21:32;;;;;;;1.27;0.88;;;;;;;16.68;100.00;98621.00;5087838;28;20525;-76
2022/10/21 13:24:11;;;;;;;3.63;1.10;;;;;;;16.63;100.00;98615.38;5071257;28;20048;-76
2022/10/21 13:26:40;;;;;;;6.63;1.17;;;;;;;16.64;100.00;98603.34;5070722;28;20487;-76
2022/10/21 13:29:22;;;;;;;2.00;0.70;;;;;;;16.72;100.00;98613.13;5070248;28;20412;-76
2022/10/21 13:32:20;;;;;;;2.13;0.88;;;;;;;16.80;100.00;98630.06;5068154;28;20060;-76
2022/10/21 13:34:56;;;;;;;2.83;0.73;;;;;;;16.67;100.00;98604.78;5068180;28;20247;-76
2022/10/21 13:37:27;;;;;;;2.67;0.82;;;;;;;16.65;100.00;98607.75;5083276;28;20048;-76
2022/10/21 13:39:56;;;;;;;4.25;0.90;;;;;;;16.66;100.00;98597.59;5072117;28;20502;-76
2022/10/21 13:42:23;;;;;;;2.83;0.90;;;;;;;16.69;100.00;98597.13;5067503;28;20055;-75
2022/10/21 13:44:56;;;;;;;1.33;0.93;;;;;;;16.72;100.00;98607.63;5068212;28;20507;-76
2022/10/21 13:47:29;;;;;;;2.25;1.08;;;;;;;16.66;100.00;98589.38;5067821;28;20423;-75
2022/10/21 13:49:58;;;;;;;4.25;1.13;;;;;;;16.58;100.00;98588.66;5066516;28;20052;-76
2022/10/21 13:52:28;;;;;;;5.70;1.10;;;;;;;16.53;100.00;98584.94;5080991;28;20044;-76
2022/10/21 13:54:59;;;;;;;11.07;1.48;;;;;;;16.61;100.00;98607.38;5075687;28;20403;-76
2022/10/21 13:57:29;;;;;;;2.97;0.95;;;;;;;16.57;100.00;98611.66;5080980;28;20048;-76
2022/10/21 14:00:06;;;;;;;3.25;0.80;;;;;;;16.43;100.00;98596.53;5084563;28;20050;-75
2022/10/21 14:02:33;;;;;;;3.90;1.02;;;;;;;16.45;100.00;98589.72;5078789;28;20127;-76
2022/10/21 14:05:00;;;;;;;6.03;1.50;;;;;;;16.44;100.00;98596.28;5065314;28;20048;-76
2022/10/21 14:07:27;;;;;;;3.30;0.80;;;;;;;16.46;100.00;98623.47;5066472;28;20084;-76
2022/10/21 14:09:57;;;;;;;5.70;0.85;;;;;;;16.28;100.00;98613.44;5067814;28;20102;-76
2022/10/21 14:12:26;;;;;;;8.45;1.05;;;;;;;16.35;100.00;98608.69;5078464;28;20055;-75
2022/10/21 14:14:55;;;;;;;2.45;0.70;;;;;;;16.44;100.00;98625.63;5074464;28;20040;-76
2022/10/21 14:17:26;;;;;;;6.32;1.15;;;;;;;16.32;100.00;98608.28;5081982;28;20422;-76
2022/10/21 14:19:55;;;;;;;3.78;0.70;;;;;;;16.38;100.00;98630.16;5084045;28;20058;-76
2022/10/21 14:22:25;;;;;;;4.80;0.80;;;;;;;16.39;100.00;98618.09;5086348;28;20063;-76
2022/10/21 14:24:55;;;;;;;1.25;0.57;;;;;;;16.42;100.00;98635.97;5078620;28;20426;-76
2022/10/21 14:27:25;;;;;;;;;;;;;;;16.33;100.00;98612.72;5077951;28;20129;-76
2022/10/21 14:29:52;;;;;;;1.92;0.80;;;;;;;16.30;100.00;98621.41;5074005;28;19931;-76
2022/10/21 14:32:21;;;;;;;3.50;0.98;;;;;;;16.30;100.00;98615.94;5077378;28;20055;-76
2022/10/21 14:35:00;;;;;;;1.42;0.90;;;;;;;16.25;100.00;98608.41;5082901;28;20052;-76
2022/10/21 14:37:34;;;;;;;2.70;1.30;;;;;;;16.34;100.00;98619.88;5069306;28;20495;-76
2022/10/21 14:40:10;;;;;;;4.03;1.52;;;;;;;16.33;100.00;98615.47;5071093;28;20099;-76
2022/10/21 14:42:40;;;;;;;2.05;1.00;;;;;;;16.27;100.00;98614.50;5086837;28;20048;-76
2022/10/21 14:45:14;;;;;;;4.95;1.27;;;;;;;16.20;100.00;98600.91;5087394;28;20568;-76
2022/10/21 14:47:41;;;;;;;1.48;0.90;;;;;;;16.14;100.00;98595.50;5087825;28;20044;-76
2022/10/21 14:50:19;;;;;;;2.15;0.90;;;;;;;16.20;100.00;98586.31;5068918;28;20053;-76
2022/10/21 14:52:47;;;;;;;4.80;1.20;;;;;;;16.28;100.00;98605.19;5075088;28;20044;-76
2022/10/21 14:55:17;;;;;;;2.05;0.90;;;;;;;16.04;100.00;98580.47;5081959;28;20514;-76
2022/10/21 14:57:47;;;;;;;2.00;0.90;;;;;;;16.15;100.00;98610.88;5084400;28;20054;-76
2022/10/21 15:00:24;;;;;;;4.00;1.30;;;;;;;16.08;100.00;98595.38;5071232;28;20059;-76
2022/10/21 15:02:50;;;;;;;2.35;1.20;;;;;;;16.06;100.00;98596.69;5073837;28;20049;-76
2022/10/21 15:05:43;;;;;;;4.45;1.10;;;;;;;16.02;100.00;98606.47;5083898;28;20051;-76
2022/10/21 15:08:30;;;;;;;2.95;0.95;;;;;;;15.95;100.00;98602.97;5066335;28;20135;-76
2022/10/21 15:11:22;;;;;;;8.45;1.23;;;;;;;15.92;100.00;98610.59;5074630;28;20564;-76
2022/10/21 15:14:16;;;;;;;4.80;1.05;;;;;;;15.82;100.00;98621.28;5090720;28;20052;-76
2022/10/21 15:16:46;;;;;;;1.80;0.90;;;;;;;15.72;100.00;98613.59;5091198;28;20407;-76
2022/10/21 15:19:17;;;;;;;4.88;1.35;;;;;;;15.78;100.00;98620.06;5090916;28;20056;-76
2022/10/21 15:21:49;;;;;;;1.92;1.05;;;;;;;15.79;100.00;98609.94;5088237;28;20047;-76
2022/10/21 15:24:20;;;;;;;1.48;0.90;;;;;;;15.88;100.00;98620.38;5081145;28;20051;-76
2022/10/21 15:26:49;;;;;;;3.22;1.00;;;;;;;15.75;100.00;98593.94;5091634;28;20048;-76
2022/10/21 15:29:26;;;;;;;1.67;0.95;;;;;;;15.72;100.00;98582.63;5090260;28;20430;-76
2022/10/21 15:31:53;;;;;;;1.08;0.80;;;;;;;15.71;100.00;98584.50;5090788;28;20080;-76
2022/10/21 15:34:19;;;;;;;2.95;1.15;;;;;;;15.72;100.00;98602.63;5089349;28;20044;-77
2022/10/21 15:36:47;;;;;;;3.35;1.65;;;;;;;15.68;100.00;98592.34;5073843;28;20327;-76
2022/10/21 15:39:14;;;;;;;3.83;1.05;;;;;;;15.72;100.00;98607.28;5085058;28;20498;-76
2022/10/21 15:41:41;;;;;;;4.30;0.90;;;;;;;15.65;100.00;98601.03;5084876;28;20048;-76
2022/10/21 15:44:17;;;;;;;4.03;1.40;;;;;;;15.49;100.00;98597.03;5089136;28;20135;-76
2022/10/21 15:46:45;;;;;;;4.50;0.90;;;;;;;15.49;100.00;98599.78;5085657;28;20487;-76
2022/10/21 15:49:16;;;;;;;2.90;1.20;;;;;;;15.53;100.00;98606.47;5084200;28;20490;-76
2022/10/21 15:51:42;;;;;;;1.98;0.80;;;;;;;15.50;100.00;98595.97;5077011;28;20521;-76
2022/10/21 15:54:10;;;;;;;5.10;1.10;;;;;;;15.41;100.00;98592.72;5074758;28;20058;-76
2022/10/21 15:56:37;;;;;;;7.32;1.05;;;;;;;15.44;100.00;98611.41;5070408;28;20053;-76
2022/10/21 15:59:04;;;;;;;1.65;0.73;;;;;;;15.38;100.00;98606.88;5073963;28;20047;-76
2022/10/21 16:01:30;;;;;;;2.45;0.98;;;;;;;15.40;100.00;98597.34;5084121;28;20491;-76
2022/10/21 16:03:57;;;;;;;3.58;0.73;;;;;;;15.32;100.00;98597.66;5078162;28;20036;-76
2022/10/21 16:06:23;;;;;;;1.45;0.82;;;;;;;15.24;100.00;98597.16;5083622;28;20059;-77
2022/10/21 16:08:51;;;;;;;2.92;1.00;;;;;;;15.30;100.00;98604.44;5083850;28;20108;-76
2022/10/21 16:11:21;;;;;;;3.28;1.08;;;;;;;15.09;100.00;98578.38;5071259;28;20558;-76
2022/10/21 16:13:48;;;;;;;2.45;0.85;;;;;;;15.15;100.00;98593.88;5078029;28;20435;-76
2022/10/21 16:16:18;;;;;;;2.03;0.85;;;;;;;14.95;100.00;98605.91;5077788;28;20052;-77
2022/10/21 16:18:45;;;;;;;1.05;0.90;;;;;;;14.91;100.00;98601.09;5081388;28;20668;-76
2022/10/21 16:21:16;;;;;;;3.40;0.85;;;;;;;14.88;100.00;98590.59;5075588;28;20043;-77
2022/10/21 16:23:43;;;;;;;1.67;0.90;;;;;;;14.88;100.00;98604.28;5077281;28;20047;-76
2022/10/21 16:26:15;;;;;;;5.78;0.93;;;;;;;14.74;100.00;98596.22;5089121;28;20048;-76
2022/10/21 16:28:43;;;;;;;3.22;1.52;;;;;;;14.60;100.00;98587.28;5076007;28;20131;-76
2022/10/21 16:31:13;;;;;;;4.57;1.23;;;;;;;14.77;100.00;98603.13;5089099;28;20048;-77
2022/10/21 16:33:39;;;;;;;3.78;1.15;;;;;;;14.57;100.00;98581.41;5082968;28;20054;-76
2022/10/21 16:36:14;;;;;;;5.35;1.45;;;;;;;14.50;100.00;98597.88;5082266;28;20472;-76
2022/10/21 16:38:42;;;;;;;5.80;0.80;;;;;;;14.55;100.00;98625.41;5076101;28;20071;-76
2022/10/21 16:41:11;;;;;;;2.60;1.10;;;;;;;14.52;100.00;98613.00;5081475;28;20134;-77
2022/10/21 16:43:37;;;;;;;3.63;1.23;;;;;;;14.51;100.00;98613.22;5088186;28;20051;-76
2022/10/21 16:46:05;;;;;;;1.33;0.88;;;;;;;14.45;100.00;98609.50;5088886;28;20044;-76
2022/10/21 16:48:32;;;;;;;2.78;1.10;;;;;;;14.44;100.00;98607.00;5088445;28;20405;-76
2022/10/21 16:50:59;;;;;;;1.45;1.00;;;;;;;14.37;100.00;98606.22;5084290;28;20051;-76
2022/10/21 16:53:27;;;;;;;1.80;1.00;;;;;;;14.20;100.00;98597.72;5069906;28;20483;-77
